createdAt,value
2018-07-07T00:00:56.700Z,99429.94
2018-07-07T00:03:26.714Z,99435.97
2018-07-07T00:05:57.271Z,99430.48
2018-07-07T00:08:27.583Z,99436.47
2018-07-07T00:10:58.897Z,99428.80
2018-07-07T00:13:29.163Z,99429.84
2018-07-07T00:15:59.222Z,99434.77
2018-07-07T00:18:29.519Z,99429.83
2018-07-07T00:20:59.618Z,99429.84
2018-07-07T00:23:29.839Z,99435.05
2018-07-07T00:26:06.708Z,99427.09
2018-07-07T00:28:36.880Z,99419.70
2018-07-07T00:31:06.918Z,99423.22
2018-07-07T00:33:37.115Z,99417.51
2018-07-07T00:36:07.311Z,99422.72
2018-07-07T00:38:37.438Z,99419.42
2018-07-07T00:41:07.799Z,99428.47
2018-07-07T00:43:38.066Z,99425.17
2018-07-07T00:46:08.345Z,99428.42
2018-07-07T00:48:38.547Z,99428.69
2018-07-07T00:51:08.782Z,99428.38
2018-07-07T00:53:39.215Z,99425.12
2018-07-07T00:56:09.615Z,99425.39
2018-07-07T00:58:39.722Z,99430.88
2018-07-07T01:01:10.032Z,99430.61
2018-07-07T01:03:40.158Z,99436.91
2018-07-07T01:06:10.603Z,99430.34
2018-07-07T01:08:40.480Z,99433.89
2018-07-07T01:11:10.633Z,99434.17
2018-07-07T01:13:41.059Z,99430.65
2018-07-07T01:16:11.745Z,99438.82
2018-07-07T01:18:41.699Z,99436.35
2018-07-07T01:21:12.317Z,99437.96
2018-07-07T01:23:42.356Z,99440.41
2018-07-07T01:26:12.722Z,99436.64
2018-07-07T01:28:42.503Z,99433.08
2018-07-07T01:31:12.913Z,99435.27
2018-07-07T01:33:42.907Z,99445.67
2018-07-07T01:36:13.191Z,99439.38
2018-07-07T01:38:43.626Z,99440.19
2018-07-07T01:41:14.006Z,99447.05
2018-07-07T01:43:50.471Z,99447.59
2018-07-07T01:46:21.264Z,99442.98
2018-07-07T01:48:51.427Z,99435.31
2018-07-07T01:51:26.599Z,99440.79
2018-07-07T01:53:56.743Z,99432.58
2018-07-07T01:56:27.059Z,99436.92
2018-07-07T01:58:57.000Z,99452.25
2018-07-07T02:01:27.293Z,99442.16
2018-07-07T02:03:57.852Z,99437.19
2018-07-07T02:06:28.583Z,99437.45
2018-07-07T02:08:59.112Z,99435.81
2018-07-07T02:11:29.223Z,99433.39
2018-07-07T02:13:59.461Z,99427.93
2018-07-07T02:16:29.607Z,99438.62
2018-07-07T02:18:59.930Z,99431.22
2018-07-07T02:21:29.848Z,99438.38
2018-07-07T02:24:00.189Z,99441.71
2018-07-07T02:26:30.315Z,99437.61
2018-07-07T02:29:00.453Z,99447.19
2018-07-07T02:31:30.555Z,99442.81
2018-07-07T02:34:00.881Z,99449.39
2018-07-07T02:36:31.236Z,99451.31
2018-07-07T02:39:01.446Z,99449.95
2018-07-07T02:41:31.578Z,99448.02
2018-07-07T02:44:01.887Z,99450.49
2018-07-07T02:46:32.118Z,99454.88
2018-07-07T02:49:02.712Z,99451.05
2018-07-07T02:51:32.915Z,99448.62
2018-07-07T02:54:04.439Z,99449.45
2018-07-07T02:56:34.589Z,99455.20
2018-07-07T02:59:11.583Z,99452.19
2018-07-07T03:01:41.794Z,99461.53
2018-07-07T03:04:12.135Z,99469.20
2018-07-07T03:06:42.468Z,99467.25
2018-07-07T03:09:12.723Z,99462.64
2018-07-07T03:11:42.944Z,99468.95
2018-07-07T03:14:13.475Z,99466.20
2018-07-07T03:16:44.120Z,99470.31
2018-07-07T03:19:14.448Z,99469.80
2018-07-07T03:21:44.715Z,99481.31
2018-07-07T03:24:14.618Z,99483.00
2018-07-07T03:26:44.977Z,99478.62
2018-07-07T03:29:15.164Z,99487.66
2018-07-07T03:31:45.467Z,99483.04
2018-07-07T03:34:15.823Z,99479.22
2018-07-07T03:36:46.230Z,99491.30
2018-07-07T03:39:16.628Z,99488.03
2018-07-07T03:41:46.841Z,99493.82
2018-07-07T03:44:16.995Z,99495.78
2018-07-07T03:46:47.353Z,99499.30
2018-07-07T03:49:17.778Z,99502.04
2018-07-07T03:51:48.037Z,99501.49
2018-07-07T03:54:19.019Z,99501.77
2018-07-07T03:56:49.423Z,99503.95
2018-07-07T03:59:19.388Z,99502.58
2018-07-07T04:01:49.806Z,99506.73
2018-07-07T04:04:20.019Z,99514.94
2018-07-07T04:06:50.182Z,99515.22
2018-07-07T04:09:20.278Z,99514.13
2018-07-07T04:11:50.647Z,99516.35
2018-07-07T04:14:21.813Z,99514.44
2018-07-07T04:16:52.302Z,99518.55
2018-07-07T04:19:22.323Z,99524.02
2018-07-07T04:21:52.664Z,99518.04
2018-07-07T04:24:23.617Z,99524.61
2018-07-07T04:26:54.064Z,99518.59
2018-07-07T04:29:24.857Z,99523.23
2018-07-07T04:31:55.838Z,99525.43
2018-07-07T04:34:26.056Z,99527.62
2018-07-07T04:36:56.771Z,99526.76
2018-07-07T04:39:27.024Z,99524.02
2018-07-07T04:41:57.204Z,99526.75
2018-07-07T04:44:27.437Z,99528.05
2018-07-07T04:46:57.928Z,99531.56
2018-07-07T04:49:28.210Z,99540.00
2018-07-07T04:51:58.618Z,99539.41
2018-07-07T04:54:29.109Z,99541.78
2018-07-07T04:56:59.420Z,99545.80
2018-07-07T04:59:29.522Z,99548.49
2018-07-07T05:02:00.063Z,99547.03
2018-07-07T05:04:30.605Z,99551.31
2018-07-07T05:07:01.179Z,99548.80
2018-07-07T05:09:31.448Z,99543.00
2018-07-07T05:12:01.891Z,99552.77
2018-07-07T05:14:32.359Z,99554.65
2018-07-07T05:17:02.587Z,99551.34
2018-07-07T05:19:33.023Z,99557.01
2018-07-07T05:22:03.554Z,99556.64
2018-07-07T05:24:33.908Z,99548.90
2018-07-07T05:27:04.497Z,99551.34
2018-07-07T05:29:34.839Z,99563.58
2018-07-07T05:32:05.563Z,99554.97
2018-07-07T05:34:36.176Z,99555.74
2018-07-07T05:37:06.671Z,99556.23
2018-07-07T05:39:37.073Z,99559.45
2018-07-07T05:42:07.739Z,99559.13
2018-07-07T05:44:38.246Z,99555.05
2018-07-07T05:47:08.423Z,99559.17
2018-07-07T05:49:38.584Z,99555.01
2018-07-07T05:52:08.935Z,99557.37
2018-07-07T05:54:40.294Z,99567.72
2018-07-07T05:57:11.285Z,99559.99
2018-07-07T05:59:41.584Z,99561.09
2018-07-07T06:02:12.470Z,99554.77
2018-07-07T06:04:42.507Z,99562.61
2018-07-07T06:07:12.667Z,99563.43
2018-07-07T06:09:43.059Z,99567.81
2018-07-07T06:12:13.407Z,99559.84
2018-07-07T06:14:43.860Z,99564.03
2018-07-07T06:17:14.468Z,99564.88
2018-07-07T06:19:44.939Z,99565.41
2018-07-07T06:22:15.152Z,99564.30
2018-07-07T06:24:45.379Z,99567.28
2018-07-07T06:27:15.478Z,99563.43
2018-07-07T06:29:45.853Z,99563.91
2018-07-07T06:32:15.931Z,99568.24
2018-07-07T06:34:46.910Z,99571.20
2018-07-07T06:37:17.043Z,99563.45
2018-07-07T06:39:47.550Z,99572.18
2018-07-07T06:42:17.721Z,99572.45
2018-07-07T06:44:47.880Z,99570.25
2018-07-07T06:47:18.036Z,99567.51
2018-07-07T06:49:48.198Z,99572.95
2018-07-07T06:52:18.522Z,99565.20
2018-07-07T06:54:48.870Z,99573.33
2018-07-07T06:57:19.054Z,99565.35
2018-07-07T06:59:49.271Z,99566.23
2018-07-07T07:02:19.558Z,99570.58
2018-07-07T07:04:49.743Z,99562.27
2018-07-07T07:07:20.716Z,99557.19
2018-07-07T07:09:50.963Z,99561.45
2018-07-07T07:12:21.063Z,99560.82
2018-07-07T07:14:51.246Z,99568.16
2018-07-07T07:17:27.713Z,99566.73
2018-07-07T07:19:58.022Z,99566.37
2018-07-07T07:22:28.435Z,99563.28
2018-07-07T07:24:58.809Z,99571.73
2018-07-07T07:27:29.153Z,99571.67
2018-07-07T07:29:59.898Z,99568.89
2018-07-07T07:32:30.157Z,99569.39
2018-07-07T07:35:00.715Z,99569.92
2018-07-07T07:37:31.212Z,99559.71
2018-07-07T07:40:02.356Z,99558.05
2018-07-07T07:42:32.801Z,99559.42
2018-07-07T07:45:02.904Z,99555.56
2018-07-07T07:47:33.313Z,99553.84
2018-07-07T07:50:04.383Z,99563.85
2018-07-07T07:52:34.478Z,99544.30
2018-07-07T07:55:04.620Z,99547.04
2018-07-07T07:57:34.836Z,99555.75
2018-07-07T08:00:05.199Z,99545.38
2018-07-07T08:02:35.462Z,99551.80
2018-07-07T08:05:06.007Z,99551.63
2018-07-07T08:07:36.113Z,99550.16
2018-07-07T08:10:06.870Z,99548.64
2018-07-07T08:12:37.190Z,99543.53
2018-07-07T08:15:07.828Z,99545.81
2018-07-07T08:17:37.877Z,99553.07
2018-07-07T08:20:08.047Z,99547.95
2018-07-07T08:22:38.252Z,99564.31
2018-07-07T08:25:08.661Z,99567.21
2018-07-07T08:27:39.021Z,99553.31
2018-07-07T08:30:09.411Z,99562.64
2018-07-07T08:32:40.303Z,99570.27
2018-07-07T08:35:10.817Z,99555.13
2018-07-07T08:37:41.121Z,99560.08
2018-07-07T08:40:13.755Z,99559.96
2018-07-07T08:42:44.464Z,99553.75
2018-07-07T08:45:14.656Z,99552.00
2018-07-07T08:47:44.706Z,99567.07
2018-07-07T08:50:15.119Z,99549.99
2018-07-07T08:52:45.510Z,99554.94
2018-07-07T08:55:15.734Z,99550.81
2018-07-07T08:57:45.890Z,99543.92
2018-07-07T09:00:18.323Z,99552.14
2018-07-07T09:02:48.467Z,99547.94
2018-07-07T09:05:18.610Z,99554.11
2018-07-07T09:07:49.350Z,99555.06
2018-07-07T09:10:19.545Z,99550.56
2018-07-07T09:12:50.740Z,99555.98
2018-07-07T09:15:20.855Z,99552.67
2018-07-07T09:17:51.794Z,99562.23
2018-07-07T09:20:22.803Z,99558.28
2018-07-07T09:22:53.699Z,99554.62
2018-07-07T09:25:24.472Z,99564.45
2018-07-07T09:27:54.670Z,99563.24
2018-07-07T09:30:24.901Z,99569.19
2018-07-07T09:32:55.142Z,99553.95
2018-07-07T09:35:25.697Z,99553.66
2018-07-07T09:37:56.086Z,99555.84
2018-07-07T09:40:26.534Z,99551.63
2018-07-07T09:42:56.767Z,99552.20
2018-07-07T09:45:27.341Z,99554.95
2018-07-07T09:47:57.805Z,99551.81
2018-07-07T09:50:28.005Z,99554.82
2018-07-07T09:52:58.183Z,99548.92
2018-07-07T09:55:28.795Z,99555.78
2018-07-07T09:57:59.005Z,99549.66
2018-07-07T10:00:34.206Z,99559.82
2018-07-07T10:03:04.545Z,99549.78
2018-07-07T10:05:35.231Z,99545.28
2018-07-07T10:08:05.664Z,99545.30
2018-07-07T10:10:36.305Z,99546.37
2018-07-07T10:13:07.262Z,99539.71
2018-07-07T10:15:37.773Z,99543.22
2018-07-07T10:18:08.769Z,99545.90
2018-07-07T10:20:38.982Z,99541.52
2018-07-07T10:23:09.362Z,99548.27
2018-07-07T10:25:39.819Z,99537.69
2018-07-07T10:28:10.266Z,99531.33
2018-07-07T10:30:40.456Z,99529.66
2018-07-07T10:33:10.745Z,99535.19
2018-07-07T10:35:40.993Z,99535.87
2018-07-07T10:38:11.294Z,99540.65
2018-07-07T10:40:41.862Z,99532.20
2018-07-07T10:43:12.188Z,99533.42
2018-07-07T10:45:42.944Z,99540.14
2018-07-07T10:48:13.831Z,99528.02
2018-07-07T10:50:44.194Z,99526.95
2018-07-07T10:53:14.368Z,99530.05
2018-07-07T10:55:44.776Z,99524.57
2018-07-07T10:58:14.970Z,99514.95
2018-07-07T11:00:45.189Z,99511.10
2018-07-07T11:03:15.385Z,99520.38
2018-07-07T11:05:45.670Z,99506.96
2018-07-07T11:08:15.983Z,99509.48
2018-07-07T11:10:46.287Z,99516.56
2018-07-07T11:13:16.655Z,99515.22
2018-07-07T11:15:46.791Z,99509.84
2018-07-07T11:18:17.354Z,99506.33
2018-07-07T11:20:47.719Z,99508.14
2018-07-07T11:23:18.012Z,99507.29
2018-07-07T11:25:48.352Z,99499.59
2018-07-07T11:28:18.397Z,99493.39
2018-07-07T11:30:48.576Z,99512.67
2018-07-07T11:33:18.873Z,99498.92
2018-07-07T11:35:48.992Z,99489.59
2018-07-07T11:38:19.661Z,99502.11
2018-07-07T11:40:50.010Z,99497.40
2018-07-07T11:43:20.348Z,99495.94
2018-07-07T11:45:50.781Z,99501.80
2018-07-07T11:48:21.155Z,99489.67
2018-07-07T11:50:51.367Z,99503.28
2018-07-07T11:53:21.730Z,99480.91
2018-07-07T11:55:57.132Z,99482.43
2018-07-07T11:58:27.414Z,99477.50
2018-07-07T12:00:57.515Z,99478.38
2018-07-07T12:03:28.481Z,99472.08
2018-07-07T12:05:58.635Z,99471.89
2018-07-07T12:08:29.145Z,99468.34
2018-07-07T12:10:59.537Z,99468.28
2018-07-07T12:13:29.733Z,99467.16
2018-07-07T12:16:00.973Z,99476.41
2018-07-07T12:18:31.313Z,99471.11
2018-07-07T12:21:01.503Z,99466.77
2018-07-07T12:23:31.962Z,99462.88
2018-07-07T12:26:02.471Z,99464.27
2018-07-07T12:28:33.310Z,99458.41
2018-07-07T12:31:03.400Z,99453.89
2018-07-07T12:33:33.746Z,99460.53
2018-07-07T12:36:04.452Z,99451.00
2018-07-07T12:38:34.517Z,99445.70
2018-07-07T12:41:04.947Z,99443.52
2018-07-07T12:43:35.086Z,99437.89
2018-07-07T12:46:05.613Z,99437.22
2018-07-07T12:48:35.851Z,99440.36
2018-07-07T12:51:06.026Z,99440.33
2018-07-07T12:53:36.274Z,99443.55
2018-07-07T12:56:06.909Z,99434.66
2018-07-07T12:58:37.059Z,99436.74
2018-07-07T13:01:07.359Z,99437.64
2018-07-07T13:03:37.658Z,99429.21
2018-07-07T13:06:07.860Z,99418.12
2018-07-07T13:08:38.005Z,99433.03
2018-07-07T13:11:08.707Z,99427.05
2018-07-07T13:13:39.013Z,99423.34
2018-07-07T13:16:09.199Z,99430.72
2018-07-07T13:18:39.704Z,99423.13
2018-07-07T13:21:09.979Z,99420.59
2018-07-07T13:23:40.164Z,99417.38
2018-07-07T13:26:10.577Z,99422.79
2018-07-07T13:28:41.175Z,99421.19
2018-07-07T13:31:11.267Z,99421.55
2018-07-07T13:33:41.637Z,99422.56
2018-07-07T13:36:12.083Z,99419.03
2018-07-07T13:38:43.663Z,99419.84
2018-07-07T13:41:14.203Z,99408.63
2018-07-07T13:43:44.393Z,99407.59
2018-07-07T13:46:14.636Z,99408.75
2018-07-07T13:48:45.005Z,99401.56
2018-07-07T13:51:15.065Z,99408.62
2018-07-07T13:53:45.313Z,99407.69
2018-07-07T13:56:16.359Z,99408.81
2018-07-07T13:58:46.553Z,99406.52
2018-07-07T14:01:18.071Z,99410.89
2018-07-07T14:03:48.266Z,99408.70
2018-07-07T14:06:18.557Z,99406.16
2018-07-07T14:08:49.268Z,99404.06
2018-07-07T14:11:19.579Z,99402.10
2018-07-07T14:13:49.963Z,99406.61
2018-07-07T14:16:20.053Z,99394.83
2018-07-07T14:18:50.192Z,99398.52
2018-07-07T14:21:20.361Z,99396.00
2018-07-07T14:23:50.822Z,99401.05
2018-07-07T14:26:21.065Z,99394.11
2018-07-07T14:28:51.394Z,99394.04
2018-07-07T14:31:21.901Z,99390.45
2018-07-07T14:33:52.089Z,99397.50
2018-07-07T14:36:22.224Z,99401.19
2018-07-07T14:38:52.788Z,99397.47
2018-07-07T14:41:23.669Z,99396.76
2018-07-07T14:43:57.893Z,99399.06
2018-07-07T14:46:28.612Z,99391.65
2018-07-07T14:48:59.191Z,99395.47
2018-07-07T14:51:29.613Z,99388.63
2018-07-07T14:54:00.288Z,99398.89
2018-07-07T14:56:30.747Z,99382.84
2018-07-07T14:59:00.908Z,99377.39
2018-07-07T15:01:31.183Z,99378.11
2018-07-07T15:04:04.083Z,99371.98
2018-07-07T15:06:39.980Z,99373.47
2018-07-07T15:09:10.078Z,99364.56
2018-07-07T15:11:40.206Z,99373.12
2018-07-07T15:14:10.701Z,99362.02
2018-07-07T15:16:40.974Z,99366.19
2018-07-07T15:19:11.179Z,99363.17
2018-07-07T15:21:41.221Z,99369.06
2018-07-07T15:24:11.339Z,99365.95
2018-07-07T15:26:41.816Z,99378.07
2018-07-07T15:29:12.540Z,99364.08
2018-07-07T15:31:42.956Z,99362.42
2018-07-07T15:34:13.158Z,99368.67
2018-07-07T15:36:43.697Z,99371.80
2018-07-07T15:39:13.686Z,99358.53
2018-07-07T15:41:43.843Z,99353.69
2018-07-07T15:44:14.338Z,99347.67
2018-07-07T15:46:44.844Z,99356.95
2018-07-07T15:49:15.375Z,99351.30
2018-07-07T15:51:45.726Z,99365.17
2018-07-07T15:54:15.926Z,99356.13
2018-07-07T15:56:46.201Z,99356.58
2018-07-07T15:59:16.189Z,99353.22
2018-07-07T16:01:46.879Z,99349.63
2018-07-07T16:04:16.933Z,99359.92
2018-07-07T16:06:47.143Z,99343.55
2018-07-07T16:09:17.366Z,99341.25
2018-07-07T16:11:47.626Z,99340.67
2018-07-07T16:14:18.130Z,99347.88
2018-07-07T16:16:48.399Z,99344.30
2018-07-07T16:19:18.831Z,99352.42
2018-07-07T16:21:49.431Z,99340.14
2018-07-07T16:24:19.830Z,99343.83
2018-07-07T16:26:49.840Z,99338.75
2018-07-07T16:29:20.807Z,99345.21
2018-07-07T16:31:51.018Z,99344.77
2018-07-07T16:34:21.142Z,99333.34
2018-07-07T16:36:51.491Z,99337.13
2018-07-07T16:39:21.938Z,99337.50
2018-07-07T16:41:53.036Z,99348.13
2018-07-07T16:44:23.229Z,99344.19
2018-07-07T16:46:53.634Z,99344.09
2018-07-07T16:49:24.144Z,99332.79
2018-07-07T16:51:54.877Z,99337.39
2018-07-07T16:54:25.032Z,99336.69
2018-07-07T16:56:55.213Z,99330.56
2018-07-07T16:59:26.213Z,99333.09
2018-07-07T17:01:56.365Z,99337.50
2018-07-07T17:04:26.583Z,99331.71
2018-07-07T17:06:57.106Z,99339.25
2018-07-07T17:09:27.321Z,99334.64
2018-07-07T17:11:57.564Z,99334.91
2018-07-07T17:14:28.279Z,99335.13
2018-07-07T17:16:58.661Z,99336.31
2018-07-07T17:19:30.655Z,99334.91
2018-07-07T17:22:00.795Z,99339.56
2018-07-07T17:24:31.969Z,99342.67
2018-07-07T17:27:02.603Z,99330.53
2018-07-07T17:29:33.438Z,99340.36
2018-07-07T17:32:03.674Z,99347.59
2018-07-07T17:34:39.681Z,99348.42
2018-07-07T17:37:10.205Z,99341.51
2018-07-07T17:39:40.643Z,99351.88
2018-07-07T17:42:11.166Z,99346.45
2018-07-07T17:44:41.622Z,99352.46
2018-07-07T17:47:12.235Z,99349.70
2018-07-07T17:49:42.424Z,99355.01
2018-07-07T17:52:12.995Z,99357.75
2018-07-07T17:54:43.234Z,99362.94
2018-07-07T17:57:13.526Z,99351.29
2018-07-07T17:59:44.603Z,99358.09
2018-07-07T18:02:15.063Z,99366.04
2018-07-07T18:04:45.526Z,99357.48
2018-07-07T18:07:16.457Z,99360.50
2018-07-07T18:09:46.764Z,99365.02
2018-07-07T18:12:16.941Z,99361.77
2018-07-07T18:14:47.131Z,99371.34
2018-07-07T18:17:17.705Z,99361.95
2018-07-07T18:19:48.029Z,99369.31
2018-07-07T18:22:18.284Z,99372.08
2018-07-07T18:24:48.622Z,99377.37
2018-07-07T18:27:18.675Z,99375.73
2018-07-07T18:29:48.919Z,99377.76
2018-07-07T18:32:19.220Z,99377.75
2018-07-07T18:34:49.665Z,99379.45
2018-07-07T18:37:20.113Z,99379.39
2018-07-07T18:39:50.690Z,99374.27
2018-07-07T18:42:21.094Z,99381.49
2018-07-07T18:44:51.317Z,99382.61
2018-07-07T18:47:22.331Z,99380.39
2018-07-07T18:49:52.939Z,99384.27
2018-07-07T18:52:23.608Z,99389.17
2018-07-07T18:54:54.112Z,99391.91
2018-07-07T18:57:24.896Z,99389.90
2018-07-07T18:59:55.439Z,99384.91
2018-07-07T19:02:25.694Z,99394.20
2018-07-07T19:04:56.056Z,99394.62
2018-07-07T19:07:26.691Z,99390.09
2018-07-07T19:09:57.114Z,99397.99
2018-07-07T19:12:27.427Z,99400.69
2018-07-07T19:15:02.767Z,99408.84
2018-07-07T19:17:33.061Z,99412.38
2018-07-07T19:20:03.137Z,99422.21
2018-07-07T19:22:38.572Z,99422.17
2018-07-07T19:25:13.912Z,99419.02
2018-07-07T19:27:44.202Z,99426.66
2018-07-07T19:30:14.527Z,99426.75
2018-07-07T19:32:50.073Z,99430.74
2018-07-07T19:35:25.490Z,99433.36
2018-07-07T19:37:55.652Z,99440.92
2018-07-07T19:40:25.982Z,99440.52
2018-07-07T19:42:56.597Z,99446.14
2018-07-07T19:45:27.148Z,99446.55
2018-07-07T19:47:57.515Z,99444.48
2018-07-07T19:50:28.279Z,99449.29
2018-07-07T19:52:58.750Z,99449.38
2018-07-07T19:55:28.950Z,99449.23
2018-07-07T19:57:59.342Z,99458.73
2018-07-07T20:00:29.698Z,99458.55
2018-07-07T20:02:59.913Z,99461.15
2018-07-07T20:05:30.279Z,99458.23
2018-07-07T20:08:00.444Z,99459.39
2018-07-07T20:10:30.603Z,99463.94
2018-07-07T20:13:01.092Z,99458.83
2018-07-07T20:15:42.536Z,99465.00
2018-07-07T20:18:12.628Z,99473.98
2018-07-07T20:20:52.062Z,99469.22
2018-07-07T20:23:21.962Z,99470.09
2018-07-07T20:25:57.456Z,99470.48
2018-07-07T20:28:33.263Z,99473.09
2018-07-07T20:31:03.884Z,99463.83
2018-07-07T20:33:34.244Z,99471.29
2018-07-07T20:36:05.982Z,99468.05
2018-07-07T20:38:36.590Z,99478.08
2018-07-07T20:41:07.264Z,99476.53
2018-07-07T20:43:37.904Z,99470.59
2018-07-07T20:46:08.681Z,99482.84
2018-07-07T20:48:39.093Z,99479.91
2018-07-07T20:51:09.459Z,99481.38
2018-07-07T20:53:39.842Z,99485.56
2018-07-07T20:56:10.738Z,99487.84
2018-07-07T20:58:40.947Z,99488.50
2018-07-07T21:01:11.055Z,99486.91
2018-07-07T21:03:41.555Z,99488.13
2018-07-07T21:06:11.699Z,99480.58
2018-07-07T21:08:41.954Z,99484.97
2018-07-07T21:11:12.142Z,99484.20
2018-07-07T21:13:42.619Z,99493.38
2018-07-07T21:16:13.286Z,99499.78
2018-07-07T21:18:43.450Z,99500.09
2018-07-07T21:21:13.648Z,99497.64
2018-07-07T21:23:43.855Z,99498.28
2018-07-07T21:26:14.298Z,99500.05
2018-07-07T21:28:44.621Z,99506.68
2018-07-07T21:31:15.028Z,99511.71
2018-07-07T21:33:45.259Z,99510.98
2018-07-07T21:36:15.400Z,99509.16
2018-07-07T21:38:46.283Z,99511.71
2018-07-07T21:41:16.445Z,99514.84
2018-07-07T21:43:46.839Z,99504.22
2018-07-07T21:46:17.215Z,99509.80
2018-07-07T21:48:47.395Z,99508.55
2018-07-07T21:51:17.496Z,99506.17
2018-07-07T21:53:48.224Z,99506.55
2018-07-07T21:56:18.606Z,99501.43
2018-07-07T21:58:55.851Z,99498.50
2018-07-07T22:02:08.582Z,99513.45
2018-07-07T22:04:43.572Z,99512.83
2018-07-07T22:07:18.897Z,99497.51
2018-07-07T22:09:48.933Z,99505.33
2018-07-07T22:12:19.043Z,99506.29
2018-07-07T22:14:49.130Z,99500.09
2018-07-07T22:17:21.241Z,99500.53
2018-07-07T22:19:51.658Z,99498.75
2018-07-07T22:22:21.844Z,99494.18
2018-07-07T22:24:52.178Z,99498.67
2018-07-07T22:27:22.384Z,99500.16
2018-07-07T22:29:53.768Z,99503.35
2018-07-07T22:32:24.744Z,99508.66
2018-07-07T22:34:59.015Z,99510.41
2018-07-07T22:37:29.859Z,99501.70
2018-07-07T22:40:00.143Z,99503.96
2018-07-07T22:42:30.946Z,99499.88
2018-07-07T22:45:01.451Z,99494.44
2018-07-07T22:47:31.679Z,99496.14
2018-07-07T22:50:02.272Z,99492.61
2018-07-07T22:52:32.450Z,99494.61
2018-07-07T22:55:02.569Z,99492.75
2018-07-07T22:57:33.500Z,99492.48
2018-07-07T23:00:03.699Z,99498.28
2018-07-07T23:02:33.771Z,99490.63
2018-07-07T23:05:03.833Z,99487.36
2018-07-07T23:07:33.966Z,99489.28
2018-07-07T23:10:04.342Z,99486.60
2018-07-07T23:12:34.574Z,99485.52
2018-07-07T23:15:04.875Z,99486.41
2018-07-07T23:17:35.034Z,99485.89
2018-07-07T23:20:05.087Z,99492.53
2018-07-07T23:22:48.399Z,99487.33
2018-07-07T23:25:18.599Z,99491.75
2018-07-07T23:27:49.501Z,99495.08
2018-07-07T23:30:20.540Z,99488.50
2018-07-07T23:32:51.725Z,99485.20
2018-07-07T23:35:22.059Z,99489.65
2018-07-07T23:37:52.339Z,99482.26
2018-07-07T23:40:22.578Z,99488.08
2018-07-07T23:42:52.847Z,99480.39
2018-07-07T23:45:22.977Z,99487.55
2018-07-07T23:47:53.190Z,99484.25
2018-07-07T23:50:23.610Z,99483.50
2018-07-07T23:52:54.103Z,99480.48
2018-07-07T23:55:24.296Z,99481.86
2018-07-07T23:57:54.512Z,99478.06
